createdAt,value
2022-08-22T00:00:14.175Z,67.27
2022-08-22T00:02:59.904Z,63.72
2022-08-22T00:03:07.176Z,63.11
2022-08-22T00:03:48.715Z,67.31
2022-08-22T00:07:04.434Z,67.04
2022-08-22T00:10:25.108Z,66.87
2022-08-22T00:13:38.029Z,66.50
2022-08-22T00:16:51.626Z,67.27
2022-08-22T00:20:08.876Z,67.10
2022-08-22T00:23:20.108Z,67.92
2022-08-22T00:26:45.123Z,67.38
2022-08-22T00:29:56.126Z,66.82
2022-08-22T00:33:08.621Z,68.21
2022-08-22T00:36:20.915Z,68.31
2022-08-22T00:39:35.190Z,68.21
2022-08-22T00:43:03.403Z,67.97
2022-08-22T00:46:31.380Z,68.34
2022-08-22T00:50:00.979Z,68.11
2022-08-22T00:53:27.647Z,68.11
2022-08-22T00:57:00.390Z,68.26
2022-08-22T01:00:17.438Z,67.62
2022-08-22T01:03:40.143Z,67.32
2022-08-22T01:06:56.863Z,67.45
2022-08-22T01:10:24.734Z,67.24
2022-08-22T01:13:50.627Z,67.47
2022-08-22T01:17:34.291Z,67.75
2022-08-22T01:21:15.738Z,67.84
2022-08-22T01:25:17.445Z,67.74
2022-08-22T01:29:05.728Z,67.97
2022-08-22T01:32:57.319Z,67.41
2022-08-22T01:36:49.261Z,67.29
2022-08-22T01:40:33.216Z,67.60
2022-08-22T01:44:01.570Z,67.31
2022-08-22T01:47:13.130Z,67.41
2022-08-22T01:50:26.699Z,67.43
2022-08-22T01:53:41.097Z,67.36
2022-08-22T01:56:48.601Z,67.26
2022-08-22T01:59:55.931Z,67.12
2022-08-22T02:03:09.810Z,67.33
2022-08-22T02:06:18.462Z,66.77
2022-08-22T02:09:33.960Z,67.20
2022-08-22T02:12:52.447Z,67.13
2022-08-22T02:16:09.776Z,67.01
2022-08-22T02:19:29.683Z,67.23
2022-08-22T02:22:44.990Z,66.98
2022-08-22T02:25:54.571Z,67.28
2022-08-22T02:32:20.490Z,67.29
2022-08-22T02:35:32.480Z,68.02
2022-08-22T02:38:44.451Z,68.51
2022-08-22T02:42:02.371Z,68.44
2022-08-22T02:45:22.064Z,68.51
2022-08-22T02:48:40.752Z,68.09
2022-08-22T02:51:56.334Z,67.94
2022-08-22T02:55:05.571Z,68.14
2022-08-22T02:58:17.731Z,68.15
2022-08-22T03:01:38.228Z,68.19
2022-08-22T03:04:53.155Z,68.19
2022-08-22T03:08:03.867Z,67.91
2022-08-22T03:11:25.842Z,67.84
2022-08-22T03:14:37.292Z,67.88
2022-08-22T03:17:52.001Z,68.34
2022-08-22T03:21:16.966Z,68.36
2022-08-22T03:24:27.467Z,68.99
2022-08-22T03:27:37.816Z,68.95
2022-08-22T03:30:44.839Z,69.05
2022-08-22T03:34:31.992Z,68.91
2022-08-22T03:37:44.252Z,68.91
2022-08-22T03:41:12.544Z,69.27
2022-08-22T03:44:51.122Z,69.19
2022-08-22T03:48:43.792Z,69.09
2022-08-22T03:52:18.303Z,69.46
2022-08-22T03:55:35.850Z,69.45
2022-08-22T03:59:12.869Z,69.31
2022-08-22T04:02:44.270Z,69.18
2022-08-22T04:06:22.012Z,69.08
2022-08-22T04:10:12.319Z,69.49
2022-08-22T04:14:05.780Z,69.29
2022-08-22T04:17:46.270Z,69.05
2022-08-22T04:21:20.686Z,68.42
2022-08-22T04:24:43.182Z,68.56
2022-08-22T04:27:55.929Z,68.29
2022-08-22T04:31:11.730Z,68.21
2022-08-22T04:34:27.218Z,68.25
2022-08-22T04:37:40.209Z,68.36
2022-08-22T04:40:52.097Z,68.20
2022-08-22T04:44:03.598Z,68.15
2022-08-22T04:47:21.929Z,68.26
2022-08-22T04:50:36.091Z,68.16
2022-08-22T04:54:00.175Z,67.91
2022-08-22T04:57:22.715Z,68.63
2022-08-22T05:00:26.417Z,68.56
2022-08-22T05:03:43.056Z,68.27
2022-08-22T05:06:58.124Z,68.10
2022-08-22T05:10:10.545Z,69.05
2022-08-22T05:13:23.185Z,68.64
2022-08-22T05:16:33.088Z,68.14
2022-08-22T05:22:49.969Z,68.07
2022-08-22T05:32:13.438Z,67.46
2022-08-22T05:35:23.299Z,67.09
2022-08-22T05:38:33.287Z,67.27
2022-08-22T05:41:40.838Z,66.64
2022-08-22T05:44:53.262Z,67.01
2022-08-22T05:48:30.517Z,66.59
2022-08-22T05:51:50.125Z,66.57
2022-08-22T05:55:06.862Z,67.28
2022-08-22T05:58:31.091Z,68.21
2022-08-22T06:01:40.206Z,67.86
2022-08-22T06:04:52.082Z,67.70
2022-08-22T06:08:09.934Z,67.53
2022-08-22T06:11:19.796Z,68.00
2022-08-22T06:14:33.995Z,68.13
2022-08-22T06:17:44.574Z,67.72
2022-08-22T06:20:53.716Z,67.87
2022-08-22T06:24:01.277Z,68.50
2022-08-22T06:27:11.330Z,68.47
2022-08-22T06:30:17.834Z,68.40
2022-08-22T06:33:27.223Z,68.95
2022-08-22T06:36:32.856Z,68.76
2022-08-22T06:39:46.028Z,68.48
2022-08-22T06:42:55.558Z,68.69
2022-08-22T06:51:38.374Z,69.34
2022-08-22T06:54:51.392Z,68.77
2022-08-22T06:58:01.703Z,67.49
2022-08-22T07:01:12.749Z,66.36
2022-08-22T07:04:18.716Z,66.70
2022-08-22T07:07:27.494Z,67.21
2022-08-22T07:10:35.899Z,66.68
2022-08-22T07:13:44.930Z,66.98
2022-08-22T07:16:57.008Z,65.92
2022-08-22T07:20:07.568Z,65.07
2022-08-22T07:23:25.199Z,65.73
2022-08-22T07:26:39.777Z,65.08
2022-08-22T07:29:54.647Z,66.28
2022-08-22T07:33:25.786Z,66.47
2022-08-22T07:36:37.379Z,65.61
2022-08-22T07:39:53.846Z,65.48
2022-08-22T07:43:13.913Z,66.47
2022-08-22T07:46:30.471Z,66.48
2022-08-22T07:49:39.554Z,66.21
2022-08-22T07:52:56.710Z,65.75
2022-08-22T07:56:03.807Z,64.83
2022-08-22T07:59:14.995Z,65.38
2022-08-22T08:02:22.820Z,65.31
2022-08-22T08:05:32.363Z,65.43
2022-08-22T08:08:44.337Z,65.80
2022-08-22T08:11:50.978Z,65.38
2022-08-22T08:14:57.073Z,64.10
2022-08-22T08:18:07.878Z,64.56
2022-08-22T08:24:57.569Z,62.97
2022-08-22T08:28:21.324Z,63.19
2022-08-22T08:31:32.315Z,62.63
2022-08-22T08:34:40.016Z,62.68
2022-08-22T08:37:48.948Z,61.89
2022-08-22T08:41:20.868Z,63.19
2022-08-22T08:44:48.792Z,63.30
2022-08-22T08:48:22.972Z,63.16
2022-08-22T08:52:17.665Z,64.28
2022-08-22T08:55:32.843Z,63.04
2022-08-22T08:58:43.876Z,63.36
2022-08-22T09:02:13.902Z,62.97
2022-08-22T09:05:59.676Z,62.22
2022-08-22T09:09:14.544Z,61.22
2022-08-22T09:12:33.778Z,60.94
2022-08-22T09:16:04.438Z,61.10
2022-08-22T09:19:37.582Z,62.01
2022-08-22T09:23:10.960Z,62.37
2022-08-22T09:26:18.907Z,61.25
2022-08-22T09:29:54.466Z,59.48
2022-08-22T09:33:06.238Z,58.87
2022-08-22T09:36:21.991Z,59.13
2022-08-22T09:39:39.155Z,59.83
2022-08-22T09:42:56.463Z,60.09
2022-08-22T09:46:12.914Z,61.39
2022-08-22T09:49:27.683Z,60.40
2022-08-22T09:52:53.602Z,61.33
2022-08-22T09:56:15.331Z,61.51
2022-08-22T09:59:42.925Z,61.47
2022-08-22T10:02:58.928Z,60.58
2022-08-22T10:06:15.721Z,59.76
2022-08-22T10:09:31.137Z,60.08
2022-08-22T10:12:50.417Z,60.38
2022-08-22T10:16:02.097Z,58.46
2022-08-22T10:19:19.314Z,57.97
2022-08-22T10:22:41.173Z,58.48
2022-08-22T10:25:53.109Z,56.55
2022-08-22T10:29:12.146Z,57.59
2022-08-22T10:32:27.621Z,57.04
2022-08-22T10:35:36.417Z,56.81
2022-08-22T10:38:47.828Z,56.77
2022-08-22T10:42:13.751Z,57.05
2022-08-22T10:45:36.517Z,56.49
2022-08-22T10:48:52.753Z,56.87
2022-08-22T10:52:15.323Z,54.54
2022-08-22T10:55:28.438Z,54.80
2022-08-22T10:58:49.132Z,54.89
2022-08-22T11:02:09.319Z,53.97
2022-08-22T11:05:41.891Z,54.67
2022-08-22T11:09:17.491Z,53.72
2022-08-22T11:12:28.208Z,53.88
2022-08-22T11:16:04.153Z,52.45
2022-08-22T11:19:18.999Z,53.37
2022-08-22T11:22:44.903Z,53.51
2022-08-22T11:26:04.116Z,53.48
2022-08-22T11:29:34.322Z,53.99
2022-08-22T11:32:54.895Z,53.55
2022-08-22T11:36:30.588Z,53.16
2022-08-22T11:39:39.602Z,52.24
2022-08-22T11:42:51.866Z,53.38
2022-08-22T11:46:24.826Z,52.80
2022-08-22T11:49:46.277Z,53.36
2022-08-22T11:53:21.545Z,51.13
2022-08-22T11:56:41.576Z,51.79
2022-08-22T12:00:04.549Z,51.39
2022-08-22T12:03:27.928Z,51.17
2022-08-22T12:06:44.278Z,51.27
2022-08-22T12:09:55.242Z,51.04
2022-08-22T12:13:35.157Z,50.54
2022-08-22T12:16:52.330Z,48.67
2022-08-22T12:20:39.078Z,50.77
2022-08-22T12:24:20.882Z,50.23
2022-08-22T12:31:11.307Z,49.62
2022-08-22T12:34:23.337Z,49.97
2022-08-22T12:37:52.190Z,50.76
2022-08-22T12:41:34.775Z,50.14
2022-08-22T12:45:02.446Z,49.46
2022-08-22T12:48:26.527Z,51.15
2022-08-22T12:51:40.904Z,53.48
2022-08-22T12:55:00.591Z,53.61
2022-08-22T12:58:20.188Z,54.72
2022-08-22T13:01:34.233Z,54.53
2022-08-22T13:04:56.036Z,53.79
2022-08-22T13:08:13.614Z,54.84
2022-08-22T13:11:23.741Z,53.89
2022-08-22T13:14:36.651Z,54.57
2022-08-22T13:17:49.699Z,54.81
2022-08-22T13:21:03.368Z,53.68
2022-08-22T13:24:16.905Z,55.49
2022-08-22T13:27:31.736Z,54.73
2022-08-22T13:30:38.419Z,54.12
2022-08-22T13:33:47.979Z,53.96
2022-08-22T13:37:03.019Z,53.44
2022-08-22T13:40:11.849Z,54.33
2022-08-22T13:43:36.594Z,54.10
2022-08-22T13:47:13.231Z,54.06
2022-08-22T13:50:21.073Z,53.41
2022-08-22T13:53:38.256Z,52.83
2022-08-22T13:56:54.450Z,52.86
2022-08-22T14:00:10.408Z,52.88
2022-08-22T14:03:23.401Z,52.64
2022-08-22T14:06:41.368Z,52.50
2022-08-22T14:09:56.953Z,54.14
2022-08-22T14:13:36.740Z,54.13
2022-08-22T14:16:49.241Z,54.10
2022-08-22T14:20:02.780Z,53.95
2022-08-22T14:23:12.364Z,53.28
2022-08-22T14:26:37.515Z,53.76
2022-08-22T14:29:56.472Z,53.73
2022-08-22T14:33:23.914Z,54.45
2022-08-22T14:36:37.392Z,54.32
2022-08-22T14:39:47.185Z,53.97
2022-08-22T14:42:56.660Z,53.84
2022-08-22T14:46:04.873Z,53.74
2022-08-22T14:49:28.866Z,53.56
2022-08-22T14:52:41.251Z,53.98
2022-08-22T14:55:55.593Z,54.31
2022-08-22T14:59:05.871Z,54.21
2022-08-22T15:02:16.854Z,55.89
2022-08-22T15:05:23.890Z,55.66
2022-08-22T15:08:32.578Z,54.67
2022-08-22T15:11:42.208Z,55.49
2022-08-22T15:14:52.403Z,56.27
2022-08-22T15:17:57.671Z,56.36
2022-08-22T15:21:06.907Z,56.07
2022-08-22T15:24:17.833Z,56.37
2022-08-22T15:27:48.725Z,55.86
2022-08-22T15:31:05.558Z,55.62
2022-08-22T15:34:24.271Z,55.37
2022-08-22T15:37:32.833Z,56.37
2022-08-22T15:40:56.297Z,55.65
2022-08-22T15:44:07.800Z,55.39
2022-08-22T15:47:32.886Z,55.94
2022-08-22T15:50:43.277Z,56.50
2022-08-22T15:54:16.321Z,56.18
2022-08-22T15:57:37.998Z,55.92
2022-08-22T16:00:46.501Z,55.94
2022-08-22T16:04:09.701Z,55.22
2022-08-22T16:07:35.815Z,56.14
2022-08-22T16:10:47.757Z,56.74
2022-08-22T16:14:21.915Z,56.68
2022-08-22T16:17:53.339Z,56.79
2022-08-22T16:21:04.696Z,56.41
2022-08-22T16:24:29.531Z,57.05
2022-08-22T16:27:41.092Z,57.23
2022-08-22T16:31:00.139Z,57.30
2022-08-22T16:34:24.084Z,57.49
2022-08-22T16:37:49.073Z,57.21
2022-08-22T16:40:53.041Z,57.46
2022-08-22T16:44:33.988Z,57.76
2022-08-22T16:48:45.615Z,57.95
2022-08-22T16:52:22.747Z,58.28
2022-08-22T16:56:03.506Z,57.60
2022-08-22T16:59:38.547Z,57.86
2022-08-22T17:03:04.238Z,57.58
2022-08-22T17:06:28.511Z,57.68
2022-08-22T17:10:01.580Z,58.21
2022-08-22T17:13:26.211Z,58.12
2022-08-22T17:16:57.765Z,58.26
2022-08-22T17:20:19.543Z,58.54
2022-08-22T17:23:39.039Z,59.24
2022-08-22T17:26:57.099Z,58.81
2022-08-22T17:30:11.384Z,58.91
2022-08-22T17:33:28.567Z,58.97
2022-08-22T17:37:49.544Z,60.56
2022-08-22T17:42:08.141Z,59.74
2022-08-22T17:45:27.584Z,60.71
2022-08-22T17:48:40.526Z,59.54
2022-08-22T17:51:50.877Z,59.31
2022-08-22T17:55:00.289Z,59.25
2022-08-22T17:58:11.957Z,59.29
2022-08-22T18:01:48.449Z,59.66
2022-08-22T18:05:04.106Z,59.96
2022-08-22T18:08:37.568Z,59.38
2022-08-22T18:11:44.878Z,59.45
2022-08-22T18:14:55.126Z,60.12
2022-08-22T18:18:04.910Z,60.13
2022-08-22T18:21:18.634Z,60.42
2022-08-22T18:24:33.136Z,59.91
2022-08-22T18:27:50.776Z,60.45
2022-08-22T18:31:47.525Z,60.51
2022-08-22T18:35:25.511Z,59.86
2022-08-22T18:38:51.166Z,59.92
2022-08-22T18:42:04.128Z,60.03
2022-08-22T18:45:16.763Z,60.53
2022-08-22T18:48:25.295Z,60.09
2022-08-22T18:51:43.749Z,60.20
2022-08-22T18:55:16.521Z,59.83
2022-08-22T18:58:51.361Z,60.56
2022-08-22T19:02:55.712Z,60.52
2022-08-22T19:06:26.709Z,60.26
2022-08-22T19:13:56.458Z,59.87
2022-08-22T19:17:39.564Z,60.82
2022-08-22T19:21:03.288Z,60.97
2022-08-22T19:24:10.983Z,60.47
2022-08-22T19:27:31.320Z,60.52
2022-08-22T19:30:48.495Z,60.41
2022-08-22T19:34:17.492Z,60.35
2022-08-22T19:37:33.641Z,60.03
2022-08-22T19:40:54.631Z,60.64
2022-08-22T19:43:58.893Z,60.48
2022-08-22T19:47:11.400Z,60.54
2022-08-22T19:50:31.032Z,60.62
2022-08-22T19:53:42.092Z,60.76
2022-08-22T19:57:04.712Z,60.63
2022-08-22T20:00:17.549Z,61.10
2022-08-22T20:03:37.915Z,60.73
2022-08-22T20:06:53.512Z,61.35
2022-08-22T20:10:10.406Z,60.81
2022-08-22T20:13:24.252Z,61.09
2022-08-22T20:17:02.287Z,61.55
2022-08-22T20:20:18.192Z,62.06
2022-08-22T20:23:28.525Z,61.98
2022-08-22T20:26:33.700Z,61.20
2022-08-22T20:29:49.279Z,61.15
2022-08-22T20:32:58.339Z,61.49
2022-08-22T20:36:16.634Z,61.28
2022-08-22T20:40:00.820Z,61.30
2022-08-22T20:43:56.780Z,61.29
2022-08-22T20:47:06.079Z,60.88
2022-08-22T20:50:13.546Z,60.82
2022-08-22T20:53:22.019Z,60.90
2022-08-22T20:56:46.063Z,60.84
2022-08-22T21:00:08.451Z,60.62
2022-08-22T21:03:21.017Z,60.89
2022-08-22T21:06:32.816Z,60.86
2022-08-22T21:09:55.080Z,61.11
2022-08-22T21:13:08.553Z,60.92
2022-08-22T21:16:16.380Z,61.32
2022-08-22T21:19:26.002Z,61.00
2022-08-22T21:22:32.345Z,60.99
2022-08-22T21:25:54.514Z,60.68
2022-08-22T21:29:07.509Z,60.71
2022-08-22T21:32:25.478Z,60.91
2022-08-22T21:35:33.311Z,60.56
2022-08-22T21:38:41.491Z,60.70
2022-08-22T21:41:55.361Z,60.76
2022-08-22T21:45:03.793Z,60.48
2022-08-22T21:48:32.951Z,61.10
2022-08-22T21:51:43.683Z,61.15
2022-08-22T21:54:47.568Z,61.22
2022-08-22T21:58:08.755Z,61.31
2022-08-22T22:01:30.694Z,61.23
2022-08-22T22:04:42.751Z,61.32
2022-08-22T22:07:51.997Z,61.37
2022-08-22T22:11:01.811Z,61.37
2022-08-22T22:14:12.096Z,61.09
2022-08-22T22:17:20.364Z,61.12
2022-08-22T22:20:28.032Z,61.20
2022-08-22T22:23:33.660Z,61.26
2022-08-22T22:26:41.173Z,61.13
2022-08-22T22:29:48.715Z,61.13
2022-08-22T22:32:52.513Z,61.59
2022-08-22T22:36:04.527Z,61.23
2022-08-22T22:39:10.693Z,61.24
2022-08-22T22:42:15.074Z,61.32
2022-08-22T22:45:20.866Z,61.50
2022-08-22T22:48:26.574Z,61.83
2022-08-22T22:51:33.522Z,61.64
2022-08-22T22:54:39.855Z,61.40
2022-08-22T22:57:47.867Z,61.36
2022-08-22T23:01:01.857Z,62.05
2022-08-22T23:04:06.113Z,63.51
2022-08-22T23:07:11.372Z,62.70
2022-08-22T23:10:18.759Z,62.32
2022-08-22T23:13:28.197Z,62.74
2022-08-22T23:16:37.258Z,62.51
2022-08-22T23:19:43.289Z,62.87
2022-08-22T23:22:51.831Z,62.72
2022-08-22T23:25:58.334Z,62.21
2022-08-22T23:29:02.158Z,62.40
2022-08-22T23:32:10.850Z,62.64
2022-08-22T23:35:16.684Z,62.42
2022-08-22T23:38:22.455Z,62.50
2022-08-22T23:41:28.730Z,62.43
2022-08-22T23:44:36.625Z,62.65
2022-08-22T23:47:43.844Z,62.22
2022-08-22T23:50:47.959Z,62.51
2022-08-22T23:53:53.353Z,63.58
2022-08-22T23:57:01.574Z,63.48
